Terminal Aerodrome Forecast
Issued by NWS

Home | Current Version | Previous Version | Text Only | Print | Product List | Glossary On
Versions: 1 2 3 4 5 6 7 8 9 10 11 12 13 14
000
FTUS45 KSLC 291120
TAFPVU
TAF
KPVU 291120Z 2912/3012 13005KT P6SM SCT100
     FM291800 VRB05KT P6SM SCT070 BKN120
     FM292100 31008KT P6SM VCSH SCT070 BKN100
     FM300300 15006KT P6SM VCSH SCT050 BKN100
     FM300900 VRB05KT P6SM VCSH BKN070
      AMD LTD TO CLD VIS AND WIND=

USA.gov is the U.S. government's official web portal to all federal, state and local government web resources and services.